This is the latest recevied weather packets stored in our database for station/object SP3SWJ-13. If no packets are shown the sender has not sent any weather packets the latest 10 day(s).
| Time | Temp. | Humidity | Pressure | Rain* | Wind** | Luminosity | Snow |
|---|---|---|---|---|---|---|---|
| 1777769655 | 11.67° C | 63% | 1007.3 hPa | - | - | - | - |
| 1777769353 | 11.67° C | 62% | 1007.3 hPa | - | - | - | - |
| 1777769053 | 11.67° C | 63% | 1007.4 hPa | - | - | - | - |
| 1777768752 | 11.67° C | 64% | 1007.4 hPa | - | - | - | - |
| 1777768451 | 11.67° C | 61% | 1007.4 hPa | - | - | - | - |
| 1777768150 | 11.67° C | 62% | 1007.4 hPa | - | - | - | - |
| 1777767849 | 11.67° C | 64% | 1007.4 hPa | - | - | - | - |
| 1777767548 | 11.67° C | 62% | 1007.5 hPa | - | - | - | - |
| 1777767247 | 12.22° C | 60% | 1007.4 hPa | - | - | - | - |
| 1777766947 | 12.22° C | 60% | 1007.5 hPa | - | - | - | - |
| 1777766645 | 12.22° C | 60% | 1007.5 hPa | - | - | - | - |
| 1777766345 | 12.22° C | 59% | 1007.6 hPa | - | - | - | - |
| 1777766044 | 12.78° C | 59% | 1007.6 hPa | - | - | - | - |
| 1777765743 | 12.78° C | 57% | 1007.6 hPa | - | - | - | - |
| 1777765442 | 12.78° C | 58% | 1007.7 hPa | - | - | - | - |
| 1777765141 | 13.33° C | 56% | 1007.7 hPa | - | - | - | - |
| 1777764840 | 13.33° C | 53% | 1007.7 hPa | - | - | - | - |
| 1777764539 | 13.33° C | 55% | 1007.8 hPa | - | - | - | - |
| 1777764238 | 13.89° C | 52% | 1007.9 hPa | - | - | - | - |
| 1777763937 | 13.89° C | 53% | 1007.9 hPa | - | - | - | - |
| 1777763636 | 13.89° C | 52% | 1008 hPa | - | - | - | - |
| 1777763336 | 14.44° C | 51% | 1008 hPa | - | - | - | - |
| 1777763035 | 14.44° C | 49% | 1008 hPa | - | - | - | - |
| 1777762734 | 14.44° C | 52% | 1008.1 hPa | - | - | - | - |
| 1777762433 | 15.56° C | 47% | 1008.2 hPa | - | - | - | - |
* Rain since midnight (hover to see other rain measurements)
** Current wind speed in m/s (hover to see current wind gust speed)